deformed-offering

Nearby METAR Reports

 

KNUQ - Moffett Nas/Mtn, California, USA
Distance from station: N 9mi, 14km
Updated: Fri, 20-Oct-2017 9:56pm PDT
Clear
Clear
 Wind from calm
Wind: Calm
Temperature: 55°F , 13°C
Dew Point: 45°F , 7°C
Humidity: 67%
Barometer: 30.17 inHg , 1021.7 hPa
Clouds: Clear
Visibility: 10 miles , 16 km
2017/10/21 04:56 KNUQ 210456Z 00000KT 10SM CLR 13/07 A3017 RMK AO2 SLP220 T01280072
KSJC - San Jose, California, USA
Distance from station: NE 9mi, 14km
Updated: Fri, 20-Oct-2017 9:53pm PDT
Few Clouds
Few Clouds
 Wind from WNW
Wind: WNW 8 mph , 13 km/h
Temperature: 55°F , 13°C
Dew Point: 46°F , 8°C
Humidity: 72%
Barometer: 30.17 inHg , 1021.7 hPa
Clouds: Few Clouds
Visibility: 10 miles , 16 km
Cloud details: Few Clouds 2000 ft
2017/10/21 04:53 KSJC 210453Z 29007KT 10SM FEW020 13/08 A3017 RMK AO2 SLP214 T01330078
 
KRHV - San Jose/Reid, California, USA
Distance from station: ENE 12mi, 19km
Updated: Fri, 20-Oct-2017 9:47pm PDT
Few Clouds
Few Clouds
 Wind from NNW
Wind: NNW 8 mph , 13 km/h
Temperature: 55°F , 13°C
Dew Point: 48°F , 9°C
Humidity: 77%
Barometer: 30.20 inHg , 1022.7 hPa
Clouds: Few Clouds
Visibility: 10 miles , 16 km
Cloud details: Few Clouds 4000 ft
2017/10/21 04:47 KRHV 210447Z 34007KT 10SM FEW040 13/09 A3020 RMK LAST
KPAO - Palo Alto, California, USA
Distance from station: NNW 14mi, 23km
Updated: Fri, 20-Oct-2017 8:47pm PDT
NOT Current
Partly Cloudy
Partly Cloudy
 Wind from W
Wind: W 14 mph , 22 km/h
Temperature: 55°F , 13°C
Dew Point: 46°F , 8°C
Humidity: 72%
Barometer: 30.14 inHg , 1020.7 hPa
Clouds: Partly Cloudy
Visibility: 10 miles , 16 km
Cloud details: Few Clouds 4000 ft
Partly Cloudy 12000 ft
2017/10/21 03:47 KPAO 210347Z 28012KT 10SM FEW040 SCT120 13/08 A3014
 
KSQL - San Carlos Airpo, California, USA
Distance from station: NW 21mi, 34km
Updated: Fri, 20-Oct-2017 9:55pm PDT
Clear
Clear
 Wind from WNW
Wind: WNW 7 mph , 11 km/h
Temperature: 55°F , 13°C
Dew Point: 45°F , 7°C
Humidity: 67%
Barometer: 30.16 inHg , 1021.3 hPa
Clouds: Clear
Visibility: 10 miles , 16 km
2017/10/21 04:55 KSQL 210455Z AUTO 29006KT 10SM CLR 13/07 A3016 RMK AO2
KE16 - San Martin, California, USA
Distance from station: ESE 27mi, 43km
Updated: Fri, 20-Oct-2017 9:55pm PDT
Mostly Cloudy
Mostly Cloudy
 Wind from NW
Wind: NW 9 mph , 15 km/h
Temperature: 54°F , 12°C
Dew Point: 45°F , 7°C
Humidity: 72%
Barometer: 30.16 inHg , 1021.3 hPa
Clouds: Mostly Cloudy
Visibility: 10 miles , 16 km
Cloud details: Partly Cloudy 2100 ft
Mostly Cloudy 2900 ft
2017/10/21 04:55 KE16 210455Z AUTO 31008KT 10SM SCT021 BKN029 12/07 A3016 RMK AO2
 
KWVI - Watsonville, California, USA
Distance from station: SSE 27mi, 44km
Updated: Fri, 20-Oct-2017 9:53pm PDT
Clear
Clear
 Wind from calm
Wind: Calm
Temperature: 52°F , 11°C
Dew Point: 52°F , 11°C
Humidity: 100%
Barometer: 30.15 inHg , 1021 hPa
Clouds: Clear
Visibility: 10 miles , 16 km
2017/10/21 04:53 KWVI 210453Z AUTO 00000KT 10SM CLR 11/11 A3015 RMK AO2 SLP209 T01110106
KHWD - Hayward, California, USA
Distance from station: N 28mi, 44km
Updated: Fri, 20-Oct-2017 9:54pm PDT
Clear
Clear
 Wind from NW
Wind: NW 6 mph , 9 km/h
Temperature: 55°F , 13°C
Dew Point: 45°F , 7°C
Humidity: 67%
Barometer: 30.15 inHg , 1021 hPa
Clouds: Clear
Visibility: 10 miles , 16 km
2017/10/21 04:54 KHWD 210454Z AUTO 31005KT 10SM CLR 13/07 A3015 RMK AO2 SLP219 T01280072 PNO
 
KSFO - San Francisco, California, USA
Distance from station: NW 30mi, 49km
Updated: Fri, 20-Oct-2017 9:56pm PDT
Partly Cloudy
Partly Cloudy
 Wind from W
Wind: W 13 mph , 20 km/h
Temperature: 55°F , 13°C
Dew Point: 48°F , 9°C
Humidity: 77%
Barometer: 30.15 inHg , 1021 hPa
Clouds: Partly Cloudy
Visibility: 10 miles , 16 km
Cloud details: Few Clouds 800 ft
Partly Cloudy 20000 ft
2017/10/21 04:56 KSFO 210456Z 26011KT 10SM FEW008 SCT200 13/09 A3015 RMK AO2 SLP211 T01330094
KHAF - Half Moon Bay, California, USA
Distance from station: WNW 31mi, 50km
Updated: Fri, 20-Oct-2017 9:55pm PDT
Mist, Partly cloudy
Mist, Partly cloudy
 Wind from N
Wind: N 3 mph , 6 km/h
Temperature: 54°F , 12°C
Dew Point: 50°F , 10°C
Humidity: 88%
Barometer: 30.15 inHg , 1021 hPa
Summary: Mist
Clouds: Partly Cloudy
Visibility: 5 miles , 8 km
Cloud details: Partly Cloudy 200 ft
2017/10/21 04:55 KHAF 210455Z AUTO 01003KT 5SM BR SCT002 12/10 A3015 RMK AO2
 
KOAK - Oakland, California, USA
Distance from station: NNW 31mi, 50km
Updated: Fri, 20-Oct-2017 9:53pm PDT
Few Clouds
Few Clouds
 Wind from WNW
Wind: WNW 12 mph , 19 km/h
Temperature: 55°F , 13°C
Dew Point: 48°F , 9°C
Humidity: 77%
Barometer: 30.16 inHg , 1021.3 hPa
Clouds: Few Clouds
Visibility: 10 miles , 16 km
Cloud details: Few Clouds 20000 ft
2017/10/21 04:53 KOAK 210453Z 29010KT 10SM FEW200 13/09 A3016 RMK AO2 SLP212 T01330089
KLVK - Livermore, California, USA
Distance from station: NNE 31mi, 51km
Updated: Fri, 20-Oct-2017 9:53pm PDT
Clear
Clear
 Wind from WSW
Wind: WSW 3 mph , 6 km/h
Temperature: 54°F , 12°C
Dew Point: 46°F , 8°C
Humidity: 77%
Barometer: 30.15 inHg , 1021 hPa
Clouds: Clear
Visibility: 10 miles , 16 km
2017/10/21 04:53 KLVK 210453Z 24003KT 10SM CLR 12/08 A3015 RMK AO2 SLP207 T01170078
 
KCVH - Hollister Muni, California, USA
Distance from station: SE 42mi, 68km
Updated: Fri, 20-Oct-2017 9:50pm PDT
Few Clouds
Few Clouds
 Wind from W
Wind: W 6 mph , 9 km/h
Temperature: 54°F , 12°C
Dew Point: 43°F , 6°C
Humidity: 67%
Barometer: 30.16 inHg , 1021.3 hPa
Clouds: Few Clouds
Visibility: 10 miles , 16 km
Cloud details: Few Clouds 3000 ft
2017/10/21 04:50 KCVH 210450Z AUTO 27005KT 10SM FEW030 12/06 A3016 RMK A01
KSNS - Salinas, California, USA
Distance from station: SSE 48mi, 77km
Updated: Fri, 20-Oct-2017 9:53pm PDT
Clear
Clear
 Wind from WSW
Wind: WSW 5 mph , 7 km/h
Temperature: 55°F , 13°C
Dew Point: 48°F , 9°C
Humidity: 77%
Barometer: 30.16 inHg , 1021.3 hPa
Clouds: Clear
Visibility: 10 miles , 16 km
2017/10/21 04:53 KSNS 210453Z AUTO 24004KT 10SM CLR 13/09 A3016 RMK AO2 SLP222 T01280094
 
KMRY - Monterey, California, USA
Distance from station: SSE 49mi, 78km
Updated: Fri, 20-Oct-2017 9:54pm PDT
Clear
Clear
 Wind from WSW
Wind: WSW 3 mph , 6 km/h
Temperature: 54°F , 12°C
Dew Point: 50°F , 10°C
Humidity: 88%
Barometer: 30.17 inHg , 1021.7 hPa
Clouds: Clear
Visibility: 10 miles , 16 km
2017/10/21 04:54 KMRY 210454Z AUTO 25003KT 10SM CLR 12/10 A3017 RMK AO2 SLP229 T01220100
KCCR - Concord, California, USA
Distance from station: N 50mi, 81km
Updated: Fri, 20-Oct-2017 9:53pm PDT
Clear
Clear
 Wind from W
Wind: W 5 mph , 7 km/h
Temperature: 57°F , 14°C
Dew Point: 46°F , 8°C
Humidity: 67%
Barometer: 30.15 inHg , 1021 hPa
Clouds: Clear
Visibility: 10 miles , 16 km
2017/10/21 04:53 KCCR 210453Z 28004KT 10SM CLR 14/08 A3015 RMK AO2 SLP195 T01390078
deformed-offering